createdAt,value
2023-05-06T00:00:08.504Z,100192.34
2023-05-06T00:02:43.164Z,100196.69
2023-05-06T00:05:10.495Z,100194.34
2023-05-06T00:07:37.752Z,100200.09
2023-05-06T00:10:05.255Z,100195.16
2023-05-06T00:12:32.278Z,100204.44
2023-05-06T00:14:59.280Z,100199.72
2023-05-06T00:17:26.381Z,100195.69
2023-05-06T00:19:53.509Z,100188.41
2023-05-06T00:22:20.487Z,100187.22
2023-05-06T00:24:47.725Z,100187.56
2023-05-06T00:27:14.668Z,100186.63
2023-05-06T00:29:41.810Z,100190.84
2023-05-06T00:32:08.840Z,100183.97
2023-05-06T00:34:36.024Z,100189.78
2023-05-06T00:37:03.437Z,100188.13
2023-05-06T00:39:30.895Z,100181.81
2023-05-06T00:42:02.451Z,100177.47
2023-05-06T00:44:30.358Z,100188.97
2023-05-06T00:46:59.513Z,100175.00
2023-05-06T00:49:28.206Z,100185.25
2023-05-06T00:51:56.829Z,100179.25
2023-05-06T00:54:26.349Z,100179.25
2023-05-06T00:56:54.400Z,100187.22
2023-05-06T00:59:23.004Z,100174.75
2023-05-06T01:01:50.292Z,100188.94
2023-05-06T01:04:17.195Z,100177.91
2023-05-06T01:06:55.581Z,100180.38
2023-05-06T01:09:51.529Z,100183.03
2023-05-06T01:12:34.353Z,100189.78
2023-05-06T01:15:13.113Z,100191.31
2023-05-06T01:17:44.358Z,100190.47
2023-05-06T01:20:13.074Z,100197.31
2023-05-06T01:22:40.220Z,100194.28
2023-05-06T01:25:08.419Z,100198.25
2023-05-06T01:27:35.722Z,100190.84
2023-05-06T01:30:05.158Z,100189.78
2023-05-06T01:32:55.173Z,100193.41
2023-05-06T01:35:35.667Z,100193.84
2023-05-06T01:38:35.057Z,100198.72
2023-05-06T01:41:03.111Z,100199.94
2023-05-06T01:43:38.468Z,100198.03
2023-05-06T01:46:07.218Z,100190.63
2023-05-06T01:48:37.266Z,100193.41
2023-05-06T01:51:04.472Z,100196.78
2023-05-06T01:53:33.339Z,100200.16
2023-05-06T01:56:04.178Z,100192.50
2023-05-06T01:58:31.289Z,100195.06
2023-05-06T02:00:58.706Z,100192.22
2023-05-06T02:03:25.990Z,100194.06
2023-05-06T02:05:53.140Z,100190.31
2023-05-06T02:08:20.875Z,100186.72
2023-05-06T02:10:48.085Z,100188.00
2023-05-06T02:13:15.171Z,100187.19
2023-05-06T02:15:42.689Z,100191.75
2023-05-06T02:18:15.159Z,100185.16
2023-05-06T02:20:42.147Z,100188.09
2023-05-06T02:23:14.957Z,100188.28
2023-05-06T02:25:41.956Z,100189.34
2023-05-06T02:28:08.835Z,100191.59
2023-05-06T02:30:36.766Z,100185.25
2023-05-06T02:33:03.989Z,100184.38
2023-05-06T02:35:30.962Z,100185.28
2023-05-06T02:37:57.988Z,100187.38
2023-05-06T02:40:25.105Z,100188.44
2023-05-06T02:42:52.563Z,100190.63
2023-05-06T02:45:19.665Z,100192.81
2023-05-06T02:47:46.654Z,100189.06
2023-05-06T02:50:13.616Z,100182.22
2023-05-06T02:52:40.585Z,100177.88
2023-05-06T02:55:07.911Z,100179.00
2023-05-06T02:57:34.920Z,100186.97
2023-05-06T03:00:02.014Z,100183.66
2023-05-06T03:02:29.006Z,100186.19
2023-05-06T03:04:56.082Z,100183.56
2023-05-06T03:07:23.008Z,100187.78
2023-05-06T03:09:50.087Z,100184.94
2023-05-06T03:12:17.125Z,100181.03
2023-05-06T03:14:44.179Z,100181.47
2023-05-06T03:17:11.585Z,100174.72
2023-05-06T03:19:38.542Z,100176.16
2023-05-06T03:22:07.612Z,100181.13
2023-05-06T03:24:38.009Z,100173.59
2023-05-06T03:27:06.571Z,100178.22
2023-05-06T03:29:33.494Z,100179.09
2023-05-06T03:32:04.539Z,100175.19
2023-05-06T03:34:37.349Z,100174.19
2023-05-06T03:37:04.344Z,100176.94
2023-05-06T03:39:31.289Z,100181.81
2023-05-06T03:41:59.523Z,100178.81
2023-05-06T03:44:26.940Z,100174.03
2023-05-06T03:46:53.914Z,100189.41
2023-05-06T03:49:23.006Z,100184.44
2023-05-06T03:51:50.118Z,100189.81
2023-05-06T03:54:18.386Z,100192.34
2023-05-06T03:56:46.440Z,100189.66
2023-05-06T03:59:15.161Z,100194.63
2023-05-06T04:01:42.940Z,100183.16
2023-05-06T04:04:11.662Z,100196.22
2023-05-06T04:06:39.147Z,100182.75
2023-05-06T04:09:06.558Z,100189.03
2023-05-06T04:11:36.579Z,100191.91
2023-05-06T04:14:04.900Z,100189.22
2023-05-06T04:16:32.311Z,100199.31
2023-05-06T04:18:59.243Z,100200.72
2023-05-06T04:21:26.257Z,100201.91
2023-05-06T04:24:02.718Z,100200.72
2023-05-06T04:26:36.859Z,100206.84
2023-05-06T04:29:04.546Z,100203.06
2023-05-06T04:31:35.273Z,100213.09
2023-05-06T04:34:06.165Z,100209.72
2023-05-06T04:36:33.941Z,100213.94
2023-05-06T04:39:27.243Z,100204.53
2023-05-06T04:41:54.627Z,100211.09
2023-05-06T04:44:29.694Z,100213.34
2023-05-06T04:46:57.628Z,100212.22
2023-05-06T04:49:24.588Z,100224.53
2023-05-06T04:51:51.942Z,100224.25
2023-05-06T04:54:19.291Z,100219.22
2023-05-06T04:56:46.448Z,100212.63
2023-05-06T04:59:15.386Z,100206.00
2023-05-06T05:01:43.769Z,100216.28
2023-05-06T05:04:11.676Z,100209.78
2023-05-06T05:06:39.832Z,100220.09
2023-05-06T05:09:06.885Z,100211.81
2023-05-06T05:11:38.307Z,100218.59
2023-05-06T05:14:05.381Z,100212.31
2023-05-06T05:16:32.925Z,100205.81
2023-05-06T05:19:03.528Z,100204.25
2023-05-06T05:21:33.111Z,100203.13
2023-05-06T05:24:00.545Z,100206.41
2023-05-06T05:26:27.593Z,100215.97
2023-05-06T05:28:56.306Z,100220.97
2023-05-06T05:31:24.052Z,100217.88
2023-05-06T05:33:51.485Z,100225.72
2023-05-06T05:36:21.519Z,100226.03
2023-05-06T05:38:50.950Z,100222.66
2023-05-06T05:41:19.109Z,100227.06
2023-05-06T05:43:46.226Z,100228.16
2023-05-06T05:46:14.561Z,100227.09
2023-05-06T05:48:42.589Z,100235.38
2023-05-06T05:51:10.773Z,100239.69
2023-05-06T05:53:38.119Z,100223.78
2023-05-06T05:56:06.564Z,100225.97
2023-05-06T05:58:34.180Z,100225.75
2023-05-06T06:01:01.870Z,100222.22
2023-05-06T06:03:29.485Z,100222.94
2023-05-06T06:05:56.658Z,100215.94
2023-05-06T06:08:26.649Z,100227.41
2023-05-06T06:10:55.111Z,100222.81
2023-05-06T06:13:28.420Z,100222.53
2023-05-06T06:15:56.761Z,100221.28
2023-05-06T06:18:24.433Z,100231.03
2023-05-06T06:20:53.262Z,100233.56
2023-05-06T06:23:21.319Z,100236.00
2023-05-06T06:25:49.521Z,100233.41
2023-05-06T06:28:16.618Z,100235.50
2023-05-06T06:30:44.777Z,100235.47
2023-05-06T06:33:12.080Z,100240.53
2023-05-06T06:35:40.186Z,100242.09
2023-05-06T06:38:07.045Z,100243.34
2023-05-06T06:40:34.040Z,100238.88
2023-05-06T06:43:01.458Z,100233.19
2023-05-06T06:45:50.086Z,100230.53
2023-05-06T06:48:17.158Z,100239.44
2023-05-06T06:50:44.175Z,100225.53
2023-05-06T06:53:11.293Z,100236.22
2023-05-06T06:55:38.374Z,100231.91
2023-05-06T06:58:05.576Z,100231.91
2023-05-06T07:00:32.528Z,100238.09
2023-05-06T07:02:59.440Z,100234.88
2023-05-06T07:05:27.281Z,100239.97
2023-05-06T07:07:55.513Z,100237.09
2023-05-06T07:10:22.823Z,100239.16
2023-05-06T07:12:49.878Z,100228.25
2023-05-06T07:15:16.862Z,100228.09
2023-05-06T07:17:44.197Z,100223.16
2023-05-06T07:20:11.798Z,100224.88
2023-05-06T07:22:39.334Z,100228.72
2023-05-06T07:25:06.851Z,100219.75
2023-05-06T07:27:33.819Z,100221.06
2023-05-06T07:30:00.924Z,100217.25
2023-05-06T07:32:28.020Z,100212.13
2023-05-06T07:34:54.912Z,100213.16
2023-05-06T07:37:21.873Z,100217.25
2023-05-06T07:39:48.955Z,100211.03
2023-05-06T07:42:15.930Z,100215.66
2023-05-06T07:44:42.904Z,100209.94
2023-05-06T07:47:10.010Z,100214.03
2023-05-06T07:49:37.129Z,100222.50
2023-05-06T07:52:04.400Z,100223.31
2023-05-06T07:54:32.014Z,100215.91
2023-05-06T07:56:59.254Z,100214.56
2023-05-06T07:59:26.249Z,100217.53
2023-05-06T08:01:53.296Z,100219.72
2023-05-06T08:04:20.254Z,100221.06
2023-05-06T08:06:47.217Z,100214.34
2023-05-06T08:09:22.327Z,100220.41
2023-05-06T08:11:50.900Z,100218.78
2023-05-06T08:14:17.815Z,100220.22
2023-05-06T08:16:44.980Z,100218.84
2023-05-06T08:19:12.074Z,100217.88
2023-05-06T08:21:39.124Z,100221.59
2023-05-06T08:24:06.359Z,100214.44
2023-05-06T08:26:33.300Z,100211.09
2023-05-06T08:29:00.429Z,100220.78
2023-05-06T08:31:27.420Z,100212.59
2023-05-06T08:33:54.783Z,100220.31
2023-05-06T08:36:22.615Z,100220.03
2023-05-06T08:38:51.138Z,100223.97
2023-05-06T08:41:19.925Z,100221.22
2023-05-06T08:43:48.682Z,100220.56
2023-05-06T08:46:15.996Z,100218.94
2023-05-06T08:48:43.327Z,100218.25
2023-05-06T08:51:15.506Z,100222.34
2023-05-06T08:53:49.519Z,100218.88
2023-05-06T08:56:17.477Z,100217.34
2023-05-06T08:58:50.036Z,100224.66
2023-05-06T09:01:17.331Z,100222.22
2023-05-06T09:03:44.403Z,100223.06
2023-05-06T09:06:11.487Z,100218.69
2023-05-06T09:08:38.382Z,100212.59
2023-05-06T09:11:23.753Z,100214.53
2023-05-06T09:13:51.744Z,100205.41
2023-05-06T09:16:29.644Z,100210.34
2023-05-06T09:18:57.393Z,100203.59
2023-05-06T09:21:34.375Z,100206.19
2023-05-06T09:24:03.090Z,100203.88
2023-05-06T09:26:31.777Z,100202.38
2023-05-06T09:29:00.146Z,100198.34
2023-05-06T09:31:28.803Z,100203.38
2023-05-06T09:33:58.108Z,100199.91
2023-05-06T09:36:31.798Z,100195.16
2023-05-06T09:38:59.535Z,100199.53
2023-05-06T09:41:26.665Z,100199.47
2023-05-06T09:43:54.816Z,100194.56
2023-05-06T09:46:22.990Z,100193.69
2023-05-06T09:48:54.658Z,100187.88
2023-05-06T09:51:21.838Z,100195.91
2023-05-06T09:53:49.184Z,100185.56
2023-05-06T09:56:16.737Z,100187.72
2023-05-06T09:58:43.857Z,100179.97
2023-05-06T10:01:19.154Z,100189.81
2023-05-06T10:03:53.909Z,100183.78
2023-05-06T10:06:23.528Z,100177.69
2023-05-06T10:08:51.183Z,100171.41
2023-05-06T10:11:19.316Z,100174.84
2023-05-06T10:13:47.197Z,100163.97
2023-05-06T10:16:15.835Z,100166.63
2023-05-06T10:18:46.021Z,100153.31
2023-05-06T10:21:22.137Z,100156.06
2023-05-06T10:23:57.523Z,100149.97
2023-05-06T10:26:27.668Z,100153.22
2023-05-06T10:28:55.110Z,100155.97
2023-05-06T10:31:22.261Z,100149.19
2023-05-06T10:33:52.305Z,100143.59
2023-05-06T10:36:24.761Z,100151.03
2023-05-06T10:38:57.031Z,100150.44
2023-05-06T10:41:28.103Z,100146.50
2023-05-06T10:44:00.324Z,100137.41
2023-05-06T10:46:31.054Z,100136.94
2023-05-06T10:49:08.597Z,100126.16
2023-05-06T10:51:38.024Z,100132.72
2023-05-06T10:54:21.872Z,100123.00
2023-05-06T10:56:48.846Z,100131.25
2023-05-06T10:59:24.471Z,100133.25
2023-05-06T11:01:56.599Z,100126.28
2023-05-06T11:04:23.627Z,100135.94
2023-05-06T11:06:53.933Z,100129.63
2023-05-06T11:09:20.853Z,100129.97
2023-05-06T11:11:47.756Z,100135.03
2023-05-06T11:14:32.694Z,100127.06
2023-05-06T11:17:01.758Z,100129.47
2023-05-06T11:19:31.198Z,100130.97
2023-05-06T11:21:58.952Z,100125.69
2023-05-06T11:24:30.770Z,100119.63
2023-05-06T11:26:59.909Z,100123.09
2023-05-06T11:29:27.273Z,100123.72
2023-05-06T11:31:54.429Z,100121.50
2023-05-06T11:34:29.309Z,100123.72
2023-05-06T11:37:02.557Z,100128.50
2023-05-06T11:39:34.906Z,100119.84
2023-05-06T11:42:08.128Z,100123.63
2023-05-06T11:44:37.012Z,100116.97
2023-05-06T11:47:06.184Z,100120.94
2023-05-06T11:49:42.212Z,100127.22
2023-05-06T11:52:10.932Z,100121.41
2023-05-06T11:54:42.184Z,100117.66
2023-05-06T11:57:09.829Z,100117.50
2023-05-06T11:59:38.483Z,100115.06
2023-05-06T12:02:10.563Z,100119.13
2023-05-06T12:04:48.106Z,100114.91
2023-05-06T12:07:16.494Z,100110.88
2023-05-06T12:09:47.364Z,100113.22
2023-05-06T12:12:24.108Z,100112.34
2023-05-06T12:14:53.015Z,100115.84
2023-05-06T12:17:20.459Z,100107.53
2023-05-06T12:19:47.853Z,100116.69
2023-05-06T12:22:27.373Z,100101.81
2023-05-06T12:24:54.477Z,100115.19
2023-05-06T12:27:35.683Z,100106.13
2023-05-06T12:30:04.900Z,100106.50
2023-05-06T12:32:32.375Z,100114.34
2023-05-06T12:35:00.682Z,100105.56
2023-05-06T12:37:29.212Z,100108.34
2023-05-06T12:40:08.223Z,100100.94
2023-05-06T12:42:35.403Z,100099.69
2023-05-06T12:45:14.630Z,100092.13
2023-05-06T12:47:52.180Z,100090.88
2023-05-06T12:50:39.808Z,100082.78
2023-05-06T12:53:09.733Z,100087.75
2023-05-06T12:55:38.720Z,100086.09
2023-05-06T12:58:16.102Z,100081.41
2023-05-06T13:00:43.113Z,100084.31
2023-05-06T13:03:11.719Z,100075.41
2023-05-06T13:05:38.878Z,100076.84
2023-05-06T13:08:06.485Z,100078.56
2023-05-06T13:10:33.454Z,100072.66
2023-05-06T13:13:00.575Z,100071.91
2023-05-06T13:15:27.854Z,100065.00
2023-05-06T13:17:55.269Z,100059.44
2023-05-06T13:20:22.415Z,100066.22
2023-05-06T13:22:54.837Z,100058.69
2023-05-06T13:25:22.902Z,100054.63
2023-05-06T13:27:49.901Z,100046.88
2023-05-06T13:30:17.216Z,100046.13
2023-05-06T13:32:46.200Z,100049.41
2023-05-06T13:35:13.390Z,100050.41
2023-05-06T13:37:40.360Z,100039.53
2023-05-06T13:40:08.949Z,100037.69
2023-05-06T13:42:36.726Z,100031.53
2023-05-06T13:45:03.880Z,100032.06
2023-05-06T13:47:31.443Z,100029.72
2023-05-06T13:49:58.474Z,100025.13
2023-05-06T13:52:25.648Z,100020.13
2023-05-06T13:54:52.654Z,100024.56
2023-05-06T13:57:19.724Z,100019.50
2023-05-06T13:59:46.667Z,100021.09
2023-05-06T14:02:13.958Z,100012.84
2023-05-06T14:04:41.149Z,100014.44
2023-05-06T14:07:08.122Z,100019.50
2023-05-06T14:09:35.125Z,100012.59
2023-05-06T14:12:03.094Z,100005.53
2023-05-06T14:14:30.053Z,100014.78
2023-05-06T14:16:56.971Z,100005.44
2023-05-06T14:19:24.418Z,99999.88
2023-05-06T14:21:52.020Z,99997.56
2023-05-06T14:24:18.957Z,99999.88
2023-05-06T14:26:46.330Z,100001.00
2023-05-06T14:29:13.264Z,100011.06
2023-05-06T14:31:40.181Z,100002.47
2023-05-06T14:34:07.235Z,100005.53
2023-05-06T14:36:34.179Z,99992.16
2023-05-06T14:39:01.085Z,100000.56
2023-05-06T14:41:28.052Z,99990.34
2023-05-06T14:43:55.010Z,99988.75
2023-05-06T14:46:21.955Z,99989.06
2023-05-06T14:48:49.069Z,99992.59
2023-05-06T14:51:15.991Z,99992.56
2023-05-06T14:53:42.960Z,99991.50
2023-05-06T14:56:10.899Z,99987.78
2023-05-06T14:58:39.593Z,99993.81
2023-05-06T15:01:07.243Z,99992.03
2023-05-06T15:03:34.352Z,99996.56
2023-05-06T15:06:01.357Z,99993.13
2023-05-06T15:08:28.368Z,100000.91
2023-05-06T15:10:55.478Z,100000.22
2023-05-06T15:13:22.552Z,99999.63
2023-05-06T15:15:49.672Z,100001.53
2023-05-06T15:18:16.668Z,99996.13
2023-05-06T15:20:43.590Z,99994.44
2023-05-06T15:23:10.921Z,99988.50
2023-05-06T15:25:38.302Z,99983.47
2023-05-06T15:28:06.048Z,99987.69
2023-05-06T15:30:33.017Z,99988.72
2023-05-06T15:33:01.981Z,99981.44
2023-05-06T15:35:29.020Z,99980.91
2023-05-06T15:37:59.203Z,99975.75
2023-05-06T15:40:27.203Z,99974.22
2023-05-06T15:42:54.320Z,99972.66
2023-05-06T15:45:22.313Z,99969.91
2023-05-06T15:48:00.085Z,99973.72
2023-05-06T15:50:33.345Z,99980.69
2023-05-06T15:53:02.031Z,99985.72
2023-05-06T15:55:29.518Z,99993.53
2023-05-06T15:57:59.154Z,99987.44
2023-05-06T16:00:28.225Z,99999.66
2023-05-06T16:02:55.291Z,100003.56
2023-05-06T16:05:22.335Z,99997.72
2023-05-06T16:07:49.856Z,99988.09
2023-05-06T16:10:16.972Z,99992.00
2023-05-06T16:12:43.952Z,99993.16
2023-05-06T16:15:14.428Z,99990.53
2023-05-06T16:17:41.708Z,99992.88
2023-05-06T16:20:10.801Z,99989.88
2023-05-06T16:22:41.410Z,99989.75
2023-05-06T16:25:15.185Z,99985.19
2023-05-06T16:27:42.287Z,99984.16
2023-05-06T16:30:10.117Z,99991.78
2023-05-06T16:32:37.297Z,99987.81
2023-05-06T16:35:04.463Z,99991.59
2023-05-06T16:37:31.468Z,99994.09
2023-05-06T16:39:58.374Z,99999.22
2023-05-06T16:42:25.334Z,99990.38
2023-05-06T16:44:52.318Z,99988.81
2023-05-06T16:47:23.841Z,99981.25
2023-05-06T16:49:51.066Z,99979.38
2023-05-06T16:52:18.589Z,99982.63
2023-05-06T16:54:45.786Z,99981.91
2023-05-06T16:57:12.755Z,99976.09
2023-05-06T16:59:39.712Z,99973.13
2023-05-06T17:02:07.803Z,99981.00
2023-05-06T17:04:34.823Z,99979.34
2023-05-06T17:07:01.820Z,99989.34
2023-05-06T17:09:29.020Z,99993.63
2023-05-06T17:11:56.150Z,99988.44
2023-05-06T17:14:23.176Z,99990.34
2023-05-06T17:16:52.299Z,99990.22
2023-05-06T17:19:19.493Z,99993.50
2023-05-06T17:21:49.547Z,99993.50
2023-05-06T17:24:16.674Z,99998.59
2023-05-06T17:26:43.665Z,99999.13
2023-05-06T17:29:10.664Z,99992.72
2023-05-06T17:31:37.562Z,100004.16
2023-05-06T17:34:04.531Z,99998.22
2023-05-06T17:36:31.893Z,100000.75
2023-05-06T17:39:06.204Z,100008.56
2023-05-06T17:41:33.895Z,100008.66
2023-05-06T17:44:01.349Z,100017.63
2023-05-06T17:46:28.439Z,100013.66
2023-05-06T17:48:55.523Z,100020.41
2023-05-06T17:51:22.526Z,100017.50
2023-05-06T17:53:49.512Z,100016.56
2023-05-06T17:56:16.859Z,100024.34
2023-05-06T17:58:43.773Z,100025.31
2023-05-06T18:01:10.788Z,100030.56
2023-05-06T18:03:39.728Z,100032.41
2023-05-06T18:06:06.947Z,100030.38
2023-05-06T18:08:33.918Z,100034.06
2023-05-06T18:11:00.942Z,100037.16
2023-05-06T18:13:27.930Z,100037.91
2023-05-06T18:15:55.017Z,100030.44
2023-05-06T18:18:22.029Z,100036.19
2023-05-06T18:20:48.996Z,100028.88
2023-05-06T18:23:16.163Z,100036.56
2023-05-06T18:25:43.167Z,100037.38
2023-05-06T18:28:10.383Z,100044.47
2023-05-06T18:30:37.429Z,100042.56
2023-05-06T18:33:04.321Z,100048.03
2023-05-06T18:35:31.380Z,100054.25
2023-05-06T18:37:58.328Z,100057.31
2023-05-06T18:40:25.271Z,100067.28
2023-05-06T18:42:53.322Z,100070.38
2023-05-06T18:45:20.517Z,100065.66
2023-05-06T18:47:47.488Z,100072.56
2023-05-06T18:50:14.627Z,100076.41
2023-05-06T18:52:41.715Z,100075.81
2023-05-06T18:55:09.316Z,100081.41
2023-05-06T18:57:36.466Z,100077.66
2023-05-06T19:00:05.083Z,100076.38
2023-05-06T19:02:32.076Z,100082.09
2023-05-06T19:04:59.079Z,100076.13
2023-05-06T19:07:26.074Z,100078.06
2023-05-06T19:09:53.094Z,100080.53
2023-05-06T19:12:19.949Z,100075.94
2023-05-06T19:14:46.866Z,100078.59
2023-05-06T19:17:14.630Z,100085.03
2023-05-06T19:19:41.986Z,100084.25
2023-05-06T19:22:08.947Z,100079.34
2023-05-06T19:24:35.921Z,100088.16
2023-05-06T19:27:02.913Z,100081.56
2023-05-06T19:29:29.919Z,100089.78
2023-05-06T19:31:56.865Z,100091.91
2023-05-06T19:34:23.815Z,100092.72
2023-05-06T19:36:50.952Z,100102.88
2023-05-06T19:39:17.946Z,100098.56
2023-05-06T19:41:45.300Z,100100.75
2023-05-06T19:44:13.772Z,100107.03
2023-05-06T19:46:40.870Z,100101.25
2023-05-06T19:49:07.915Z,100097.97
2023-05-06T19:51:34.867Z,100111.38
2023-05-06T19:54:01.870Z,100110.47
2023-05-06T19:56:28.828Z,100115.47
2023-05-06T19:58:55.835Z,100117.31
2023-05-06T20:01:24.110Z,100112.63
2023-05-06T20:03:51.450Z,100110.28
2023-05-06T20:06:18.452Z,100118.22
2023-05-06T20:08:45.386Z,100114.72
2023-05-06T20:11:12.435Z,100115.88
2023-05-06T20:13:39.530Z,100110.38
2023-05-06T20:16:07.027Z,100111.16
2023-05-06T20:18:34.050Z,100121.88
2023-05-06T20:21:01.156Z,100118.31
2023-05-06T20:23:28.089Z,100123.75
2023-05-06T20:25:55.137Z,100116.41
2023-05-06T20:28:22.146Z,100115.31
2023-05-06T20:30:49.139Z,100116.13
2023-05-06T20:33:16.815Z,100115.34
2023-05-06T20:35:43.802Z,100126.81
2023-05-06T20:38:11.203Z,100117.53
2023-05-06T20:40:38.233Z,100115.31
2023-05-06T20:43:05.363Z,100118.88
2023-05-06T20:45:32.324Z,100118.59
2023-05-06T20:47:59.325Z,100119.44
2023-05-06T20:50:26.353Z,100118.31
2023-05-06T20:52:54.621Z,100125.41
2023-05-06T20:55:23.672Z,100124.09
2023-05-06T20:57:51.117Z,100124.16
2023-05-06T21:00:19.009Z,100126.59
2023-05-06T21:02:46.135Z,100132.63
2023-05-06T21:05:13.504Z,100131.81
2023-05-06T21:07:40.951Z,100133.75
2023-05-06T21:10:08.195Z,100139.78
2023-05-06T21:12:35.383Z,100141.41
2023-05-06T21:15:02.361Z,100145.81
2023-05-06T21:17:29.467Z,100144.16
2023-05-06T21:19:56.544Z,100146.09
2023-05-06T21:22:24.315Z,100144.94
2023-05-06T21:24:51.451Z,100136.78
2023-05-06T21:27:18.672Z,100140.34
2023-05-06T21:29:45.759Z,100141.97
2023-05-06T21:32:12.944Z,100146.59
2023-05-06T21:34:39.916Z,100144.94
2023-05-06T21:37:06.910Z,100140.06
2023-05-06T21:39:33.904Z,100139.25
2023-05-06T21:42:01.059Z,100147.69
2023-05-06T21:44:28.023Z,100146.31
2023-05-06T21:46:55.023Z,100139.78
2023-05-06T21:49:22.524Z,100141.97
2023-05-06T21:51:49.666Z,100146.31
2023-05-06T21:54:17.545Z,100149.63
2023-05-06T21:56:45.098Z,100153.19
2023-05-06T21:59:14.601Z,100149.34
2023-05-06T22:01:41.659Z,100149.88
2023-05-06T22:04:13.116Z,100154.50
2023-05-06T22:06:40.604Z,100156.41
2023-05-06T22:09:12.047Z,100153.69
2023-05-06T22:11:40.318Z,100149.59
2023-05-06T22:14:07.316Z,100153.69
2023-05-06T22:16:35.766Z,100153.94
2023-05-06T22:19:05.089Z,100152.88
2023-05-06T22:21:34.745Z,100153.69
2023-05-06T22:24:01.757Z,100150.13
2023-05-06T22:26:28.883Z,100156.88
2023-05-06T22:28:56.726Z,100149.22
2023-05-06T22:31:25.018Z,100152.25
2023-05-06T22:33:55.732Z,100147.84
2023-05-06T22:36:22.873Z,100145.41
2023-05-06T22:38:50.416Z,100151.88
2023-05-06T22:41:18.569Z,100141.34
2023-05-06T22:43:45.698Z,100142.16
2023-05-06T22:46:12.970Z,100143.25
2023-05-06T22:48:40.713Z,100139.41
2023-05-06T22:51:11.042Z,100142.88
2023-05-06T22:53:38.375Z,100142.28
2023-05-06T22:56:05.742Z,100136.28
2023-05-06T22:58:32.838Z,100140.16
2023-05-06T23:01:00.014Z,100143.03
2023-05-06T23:03:27.184Z,100138.94
2023-05-06T23:05:57.872Z,100144.53
2023-05-06T23:08:24.949Z,100141.00
2023-05-06T23:10:52.058Z,100149.09
2023-05-06T23:13:19.393Z,100149.63
2023-05-06T23:15:46.772Z,100146.09
2023-05-06T23:18:13.680Z,100147.75
2023-05-06T23:20:40.668Z,100143.91
2023-05-06T23:23:10.814Z,100140.16
2023-05-06T23:25:38.128Z,100140.00
2023-05-06T23:28:05.222Z,100135.41
2023-05-06T23:30:32.304Z,100136.63
2023-05-06T23:32:59.365Z,100142.03
2023-05-06T23:35:26.335Z,100140.06
2023-05-06T23:37:53.231Z,100140.06
2023-05-06T23:40:20.232Z,100146.28
2023-05-06T23:42:47.186Z,100137.19
2023-05-06T23:45:14.165Z,100145.03
2023-05-06T23:47:41.244Z,100142.53
2023-05-06T23:50:09.047Z,100141.41
2023-05-06T23:52:38.360Z,100136.72
2023-05-06T23:55:06.185Z,100144.38
2023-05-06T23:57:33.150Z,100144.06
